MATARÓ





Hora UTC 06:00
Temperatura 9.5 ºC
Humedad 72.7 %
Presión 1015.1 hPa
Pluja 0.0 mm
Velocidad viento 4.7 km/h
Dirección viento W
Radiación solar 0.1 W/m²

Datos diarios 2022-12-01



Hora UTC (invierno +1h; verano +2h)
Temperatura (ºC) Humedad (%) Presión (hPa) Velocidad viento (km/h) Precipitación (mm) Radiación solar (W/m²)
Hora UTC Aire Humedad Presión Vel. Dir. Vel. Max Dir. Intent. máx 5 min. Rad. Sol.
00:05 10.0 83.6 1015.7 4.9 NNE 4.9 NNE 0.0 0.1
00:10 9.9 83.6 1015.6 6.2 NNE 8.1 NNE 0.0 0.1
00:15 9.9 83.6 1015.6 7.3 NNE 8.5 N 0.0 0.1
00:20 9.9 83.3 1015.5 6.6 NNE 7.8 NNE 0.0 0.1
00:25 9.9 83.1 1015.5 7.3 NNE 8.8 NNE 0.0 0.1
00:30 9.9 82.8 1015.5 7.2 NNE 8.8 NNE 0.0 0.1
00:35 10.0 82.7 1015.5 6.3 NNE 7.1 NNE 0.0 0.1
00:40 10.0 82.5 1015.4 6.6 NNE 7.8 NNE 0.0 0.1
00:45 10.0 82.4 1015.4 7.1 NNE 8.1 N 0.0 0.1
00:50 10.0 82.1 1015.3 7.1 NNE 8.5 NNE 0.0 0.1
00:55 10.1 81.7 1015.3 6.6 NNE 7.8 NNE 0.0 0.1
01:00 10.0 81.6 1015.3 6.7 NNE 7.8 NNE 0.0 0.1
01:05 10.0 81.5 1015.3 7.4 NNE 8.8 N 0.0 0.1
01:10 10.0 81.2 1015.3 6.7 NNE 8.1 NNE 0.0 0.1
01:15 10.1 81.2 1015.3 6.8 NNE 8.1 NNE 0.0 0.1
01:20 10.0 81.1 1015.2 6.7 NNE 7.8 NNE 0.0 0.1
01:25 10.1 80.6 1015.2 6.9 NNE 8.1 NNE 0.0 0.1
01:30 10.0 80.5 1015.3 7.1 N 8.8 NNE 0.0 0.1
01:35 10.0 80.5 1015.3 7.5 NNE 9.2 NNE 0.0 0.1
01:40 9.9 80.1 1015.3 7.1 NNE 8.8 NNE 0.0 0.1
01:45 10.0 79.1 1015.3 7.2 N 8.5 N 0.0 0.1
01:50 10.0 78.7 1015.3 7.2 N 8.1 N 0.0 0.1
01:55 10.0 77.9 1015.3 6.8 NNE 8.1 N 0.0 0.1
02:00 10.1 76.5 1015.3 5.7 NNE 7.8 NE 0.0 0.1
02:05 10.2 75.6 1015.3 4.6 NNE 6.4 NE 0.0 0.1
02:10 10.3 74.8 1015.3 4.0 N 5.6 N 0.0 0.1
02:15 10.3 74.3 1015.2 4.9 NNE 7.1 NNE 0.0 0.1
02:20 10.4 73.2 1015.2 5.7 NNE 8.8 NNE 0.0 0.1
02:25 10.3 73.6 1015.1 6.9 NNE 8.8 NNE 0.0 0.1
02:30 10.1 74.2 1015.1 5.7 NNE 7.4 N 0.0 0.1
02:35 10.0 74.6 1015.1 4.8 NNE 7.4 NE 0.0 0.1
02:40 9.9 74.7 1015.1 5.1 NNE 8.1 NNE 0.0 0.1
02:45 9.9 74.7 1015.1 3.4 NNE 5.3 N 0.0 0.1
02:50 10.0 74.8 1015.2 3.9 NNE 6.7 NNE 0.0 0.1
02:55 10.0 74.5 1015.1 5.2 NNE 7.4 N 0.0 0.1
03:00 10.2 74.2 1015.1 5.4 N 10.2 N 0.0 0.1
03:05 10.3 74.0 1015.1 4.1 NNE 6.7 NE 0.0 0.1
03:10 10.3 73.9 1015.1 3.5 NNE 5.3 NNE 0.0 0.1
03:15 10.4 73.7 1015.1 4.5 N 7.4 NNE 0.0 0.1
03:20 10.5 73.3 1015.1 4.3 N 7.4 N 0.0 0.1
03:25 10.6 73.5 1015.1 4.7 N 7.8 N 0.0 0.1
03:30 10.6 73.0 1015.0 5.0 N 7.1 N 0.0 0.1
03:35 10.6 73.0 1015.0 4.4 N 6.7 N 0.0 0.1
03:40 10.7 72.6 1015.0 5.6 N 8.5 NNE 0.0 0.1
03:45 10.7 72.3 1014.9 5.6 N 8.1 NNE 0.0 0.1
03:50 10.8 72.7 1014.9 5.6 NNE 8.8 N 0.0 0.1
03:55 10.7 72.6 1014.9 4.8 N 7.4 N 0.0 0.1
04:00 10.8 72.5 1014.9 5.7 N 7.1 N 0.0 0.1
04:05 10.8 72.3 1014.9 5.6 N 7.1 0.0 0.1
04:10 10.8 72.3 1014.8 6.1 N 8.5 NNE 0.0 0.1
04:15 10.7 72.4 1014.8 5.5 N 8.8 N 0.0 0.1
04:20 10.7 72.8 1014.8 7.0 N 12.0 N 0.0 0.1
04:25 10.6 72.2 1014.8 7.5 N 13.1 N 0.0 0.1
04:30 10.5 71.3 1014.8 8.7 N 13.8 N 0.0 0.1
04:35 10.4 71.3 1014.9 8.4 N 13.1 N 0.0 0.1
04:40 10.4 70.7 1014.9 7.8 N 12.7 NNE 0.0 0.1
04:45 10.3 70.4 1014.9 6.7 NNE 10.6 NNE 0.0 0.1
04:50 10.3 70.2 1014.8 5.4 NNE 10.2 N 0.0 0.1
04:55 10.3 70.4 1014.8 4.5 N 9.2 N 0.0 0.1
05:00 10.3 70.6 1014.8 3.9 NNE 9.2 NNE 0.0 0.1
05:05 10.2 70.3 1014.8 8.6 N 14.8 N 0.0 0.1
05:10 10.2 70.0 1014.8 10.1 N 15.9 N 0.0 0.1
05:15 10.2 69.6 1014.8 7.5 NNE 12.4 N 0.0 0.1
05:20 10.2 69.3 1014.8 4.8 ENE 8.8 E 0.0 0.1
05:25 10.2 69.7 1014.7 4.2 ENE 9.9 ENE 0.0 0.1
05:30 10.1 70.2 1014.7 6.2 N 15.5 N 0.0 0.1
05:35 10.0 70.2 1014.7 8.6 N 18.7 0.0 0.1
05:40 9.9 70.4 1014.7 7.0 N 14.8 NNE 0.0 0.1
05:45 9.9 70.2 1014.8 6.5 N 14.8 NNW 0.0 0.1
05:50 9.8 70.3 1014.9 3.5 ENE 9.2 N 0.0 0.1
05:55 9.6 71.8 1015.0 6.5 S 10.2 SW 0.0 0.1
06:00 9.5 72.7 1015.1 4.7 W 7.8 WSW 0.0 0.1
Máxima 10.9 83.6 1015.7 10.1 N 18.7 0.0 0.1
Mínima 9.4 69.3 1014.7
Total 0.0